Time;durP1;ratioP1;P1;durP2;ratioP2;P2;SDS_P1;SDS_P2;PMS_P1;PMS_P2;Temp;Humidity;BMP_temperature;BMP_pressure;BME280_temperature;BME280_humidity;BME280_pressure;Samples;Min_cycle;Max_cycle;Signal;HPM_P1;HPM_P2
2023/01/06 00:02:19;;;;;;;;;;;;;;;16.53;60.30;101058.00;7251361;19;154455;-57
2023/01/06 00:04:47;;;;;;;;;;;;;;;16.54;60.10;101082.81;7251141;19;154108;-57
2023/01/06 00:07:14;;;;;;;;;;;;;;;16.53;60.29;101061.63;7254071;19;153690;-57
2023/01/06 00:09:41;;;;;;;;;;;;;;;16.53;60.24;101071.97;7250490;19;152574;-58
2023/01/06 00:12:08;;;;;;;;;;;;;;;16.53;60.52;101083.13;7245332;19;153387;-57
2023/01/06 00:14:35;;;;;;;;;;;;;;;16.53;60.42;101072.78;7250288;19;154683;-58
2023/01/06 00:17:02;;;;;;;;;;;;;;;16.53;60.28;101060.81;7248454;19;152983;-57
2023/01/06 00:19:29;;;;;;;;;;;;;;;16.52;60.31;101056.34;7248427;19;153962;-58
2023/01/06 00:21:57;;;;;;;;;;;;;;;16.51;60.32;101054.66;7251099;19;154406;-57
2023/01/06 00:24:24;;;;;;;;;;;;;;;16.52;60.50;101046.00;7255245;19;152327;-57
2023/01/06 00:26:51;;;;;;;;;;;;;;;16.51;60.40;101033.19;7254782;19;154557;-58
2023/01/06 00:29:18;;;;;;;;;;;;;;;16.51;60.62;101012.81;7262446;19;153814;-57
2023/01/06 00:31:45;;;;;;;;;;;;;;;16.52;60.36;101028.44;7253800;19;154426;-57
2023/01/06 00:34:12;;;;;;;;;;;;;;;16.52;60.33;101018.13;7256714;19;154186;-58
2023/01/06 00:36:39;;;;;;;;;;;;;;;16.52;60.54;101022.88;7252604;19;153997;-58
2023/01/06 00:39:06;;;;;;;;;;;;;;;16.52;60.32;101011.72;7254378;19;154343;-57
2023/01/06 00:44:04;;;;;;;;;;;;;;;16.50;60.83;101017.56;7252656;19;154716;-57
2023/01/06 00:46:32;;;;;;;;;;;;;;;16.52;60.78;101025.66;7252703;19;155361;-57
2023/01/06 00:49:00;;;;;;;;;;;;;;;16.52;60.48;101014.50;7255688;19;153852;-58
2023/01/06 00:51:34;;;;;;;;;;;;;;;16.50;60.90;101014.75;7258865;19;154133;-57
2023/01/06 00:54:01;;;;;;;;;;;;;;;16.52;60.90;101017.28;7255716;19;153516;-57
2023/01/06 00:56:28;;;;;;;;;;;;;;;16.52;60.82;101011.72;7254753;19;153324;-57
2023/01/06 00:58:55;;;;;;;;;;;;;;;16.51;61.10;101019.25;7255688;19;153770;-57
2023/01/06 01:01:22;;;;;;;;;;;;;;;16.51;60.74;101032.34;7253124;19;152766;-57
2023/01/06 01:03:49;;;;;;;;;;;;;;;16.52;60.87;101034.03;7254296;19;154853;-57
2023/01/06 01:06:16;;;;;;;;;;;;;;;16.51;61.15;101032.34;7249664;19;155026;-58
2023/01/06 01:08:44;;;;;;;;;;;;;;;16.51;60.97;101032.34;7254623;19;154010;-58
2023/01/06 01:12:08;;;;;;;;;;;;;;;16.51;61.23;101010.88;7255048;19;154505;-58
2023/01/06 01:13:58;;;;;;;;;;;;;;;16.51;61.09;100996.09;7259523;19;153813;-57
2023/01/06 01:16:26;;;;;;;;;;;;;;;16.51;61.00;101004.44;7253094;19;152931;-58
2023/01/06 01:18:53;;;;;;;;;;;;;;;16.50;61.13;101005.56;7250537;19;154351;-57
2023/01/06 01:21:20;;;;;;;;;;;;;;;16.50;61.45;101000.81;7249366;19;154604;-58
2023/01/06 01:23:47;;;;;;;;;;;;;;;16.51;61.40;101012.81;7252713;19;154076;-57
2023/01/06 01:26:14;;;;;;;;;;;;;;;16.51;61.42;101010.03;7253694;19;153945;-57
2023/01/06 01:28:41;;;;;;;;;;;;;;;16.50;61.32;100994.41;7254882;19;154275;-57
2023/01/06 01:31:08;;;;;;;;;;;;;;;16.50;61.59;101002.78;7251452;19;153553;-57
2023/01/06 01:33:36;;;;;;;;;;;;;;;16.50;61.65;100997.19;7257896;19;153658;-58
2023/01/06 01:36:04;;;;;;;;;;;;;;;16.51;61.82;101015.59;7249218;19;154755;-57
2023/01/06 01:38:31;;;;;;;;;;;;;;;16.50;61.82;100999.97;7251025;19;154724;-57
2023/01/06 01:40:59;;;;;;;;;;;;;;;16.50;61.51;100986.03;7255219;19;153522;-57
2023/01/06 01:43:41;;;;;;;;;;;;;;;16.49;61.71;100981.59;7249859;19;155007;-57
2023/01/06 01:46:09;;;;;;;;;;;;;;;16.49;61.75;100979.63;7254180;19;153666;-58
2023/01/06 01:48:38;;;;;;;;;;;;;;;16.49;61.83;100981.59;7251742;19;152618;-57
2023/01/06 01:51:08;;;;;;;;;;;;;;;16.50;61.87;100980.47;7251326;19;154450;-57
2023/01/06 01:53:37;;;;;;;;;;;;;;;16.49;61.79;101010.28;7250910;19;154725;-57
2023/01/06 01:56:07;;;;;;;;;;;;;;;16.49;62.05;101023.44;7259390;19;154068;-58
2023/01/06 01:58:35;;;;;;;;;;;;;;;16.46;62.11;101017.28;7252952;19;154955;-57
2023/01/06 02:01:04;;;;;;;;;;;;;;;16.47;61.96;101026.50;7252632;19;153935;-57
2023/01/06 02:03:31;;;;;;;;;;;;;;;16.47;62.49;101026.50;7251342;19;154534;-57
2023/01/06 02:06:02;;;;;;;;;;;;;;;16.48;62.22;101041.28;7248945;19;156187;-57
2023/01/06 02:08:33;;;;;;;;;;;;;;;16.46;62.25;101039.59;7251994;19;152732;-57
2023/01/06 02:11:00;;;;;;;;;;;;;;;16.46;62.10;101041.53;7252625;19;154197;-57
2023/01/06 02:13:27;;;;;;;;;;;;;;;16.46;62.44;101041.53;7250782;19;153516;-58
2023/01/06 02:16:04;;;;;;;;;;;;;;;16.46;61.87;101053.53;7249349;19;154085;-57
2023/01/06 02:18:34;;;;;;;;;;;;;;;16.46;62.11;101061.91;7259064;19;153462;-57
2023/01/06 02:21:02;;;;;;;;;;;;;;;16.45;62.08;101068.59;7248916;19;153799;-57
2023/01/06 02:23:32;;;;;;;;;;;;;;;16.45;61.84;101060.22;7248395;19;155031;-57
2023/01/06 02:26:02;;;;;;;;;;;;;;;16.45;61.75;101064.97;7253777;19;154573;-57
2023/01/06 02:28:32;;;;;;;;;;;;;;;16.44;61.85;101072.47;7253497;19;153431;-57
2023/01/06 02:31:02;;;;;;;;;;;;;;;16.44;62.04;101085.63;7252348;19;154577;-57
2023/01/06 02:33:32;;;;;;;;;;;;;;;16.44;61.81;101088.41;7252687;19;153976;-58
2023/01/06 02:36:07;;;;;;;;;;;;;;;16.44;61.65;101088.41;7250292;19;154980;-57
2023/01/06 02:38:38;;;;;;;;;;;;;;;16.44;61.73;101088.41;7251721;19;154548;-57
2023/01/06 02:41:08;;;;;;;;;;;;;;;16.43;61.64;101104.28;7258072;19;154381;-57
2023/01/06 02:43:38;;;;;;;;;;;;;;;16.44;61.40;101124.66;7234242;19;154871;-57
2023/01/06 02:46:15;;;;;;;;;;;;;;;16.43;61.70;101122.97;7241611;19;153436;-57
2023/01/06 02:48:45;;;;;;;;;;;;;;;16.43;61.52;101134.97;7249126;19;152749;-58
2023/01/06 02:51:16;;;;;;;;;;;;;;;16.41;61.41;101137.19;7248621;19;153366;-57
2023/01/06 02:53:55;;;;;;;;;;;;;;;16.41;61.22;101134.41;7247624;19;153216;-57
2023/01/06 02:56:25;;;;;;;;;;;;;;;16.40;61.52;101141.09;7248188;19;154092;-57
2023/01/06 02:58:55;;;;;;;;;;;;;;;16.40;61.07;101155.03;7250575;19;153475;-57
2023/01/06 03:01:25;;;;;;;;;;;;;;;16.41;61.41;101161.44;7249125;19;153302;-57
2023/01/06 03:03:54;;;;;;;;;;;;;;;16.40;60.82;101162.53;7254620;19;154100;-57
2023/01/06 03:06:24;;;;;;;;;;;;;;;16.39;61.07;101163.69;7245375;19;153761;-57
2023/01/06 03:08:53;;;;;;;;;;;;;;;16.39;60.81;101167.31;7251621;19;153451;-58
2023/01/06 03:11:25;;;;;;;;;;;;;;;16.38;60.74;101164.78;7248414;19;153759;-57
2023/01/06 03:13:56;;;;;;;;;;;;;;;16.37;60.68;101174.25;7247572;19;152826;-57
2023/01/06 03:16:23;;;;;;;;;;;;;;;16.37;60.67;101180.69;7250016;19;154059;-57
2023/01/06 03:18:51;;;;;;;;;;;;;;;16.37;60.93;101180.69;7249936;19;154123;-57
2023/01/06 03:21:20;;;;;;;;;;;;;;;16.36;60.80;101176.22;7249051;19;154748;-57
2023/01/06 03:23:48;;;;;;;;;;;;;;;16.36;60.50;101184.56;7254305;19;153660;-57
2023/01/06 03:26:15;;;;;;;;;;;;;;;16.36;60.58;101192.94;7250172;19;155038;-57
2023/01/06 03:28:42;;;;;;;;;;;;;;;16.36;60.54;101197.66;7250474;19;152151;-57
2023/01/06 03:31:11;;;;;;;;;;;;;;;16.36;60.24;101208.81;7248669;19;155292;-57
2023/01/06 03:33:41;;;;;;;;;;;;;;;16.34;60.50;101206.34;7248791;19;152792;-57
2023/01/06 03:36:11;;;;;;;;;;;;;;;16.33;60.31;101209.38;7247417;19;153556;-58
2023/01/06 03:38:46;;;;;;;;;;;;;;;16.33;60.48;101209.38;7246269;19;153617;-57
2023/01/06 03:41:16;;;;;;;;;;;;;;;16.33;60.32;101206.59;7249367;19;153660;-58
2023/01/06 03:43:43;;;;;;;;;;;;;;;16.32;60.27;101208.53;7247286;19;152612;-57
2023/01/06 03:46:20;;;;;;;;;;;;;;;16.31;60.24;101200.44;7254516;19;153523;-57
2023/01/06 03:48:51;;;;;;;;;;;;;;;16.32;60.35;101207.69;7246709;19;153107;-57
2023/01/06 03:51:19;;;;;;;;;;;;;;;16.30;60.32;101208.00;7244869;19;154119;-57
2023/01/06 03:53:49;;;;;;;;;;;;;;;16.31;60.20;101208.81;7247399;19;154362;-58
2023/01/06 03:56:19;;;;;;;;;;;;;;;16.30;60.01;101218.31;7253810;19;153578;-57
2023/01/06 03:58:49;;;;;;;;;;;;;;;16.30;59.74;101213.56;7257219;19;154810;-57
2023/01/06 04:01:16;;;;;;;;;;;;;;;16.29;59.87;101209.09;7254506;19;154471;-58
2023/01/06 04:03:45;;;;;;;;;;;;;;;16.29;59.98;101209.09;7255319;19;153866;-57
2023/01/06 04:06:12;;;;;;;;;;;;;;;16.28;59.69;101210.19;7253142;19;154387;-57
2023/01/06 04:08:39;;;;;;;;;;;;;;;16.29;59.48;101213.84;7262006;19;155170;-58
2023/01/06 04:11:07;;;;;;;;;;;;;;;16.28;59.90;101220.50;7257361;19;155051;-57
2023/01/06 04:13:34;;;;;;;;;;;;;;;16.28;59.72;101226.94;7253643;19;154059;-57
2023/01/06 04:16:01;;;;;;;;;;;;;;;16.28;59.64;101226.94;7255088;19;153434;-57
2023/01/06 04:18:28;;;;;;;;;;;;;;;16.27;59.57;101222.47;7257567;19;154054;-57
2023/01/06 04:20:55;;;;;;;;;;;;;;;16.27;59.39;101228.03;7247452;19;153721;-57
2023/01/06 04:23:22;;;;;;;;;;;;;;;16.26;59.65;101222.75;7254181;19;154146;-57
2023/01/06 04:25:49;;;;;;;;;;;;;;;16.25;59.42;101232.22;7256309;19;154090;-57
2023/01/06 04:28:16;;;;;;;;;;;;;;;16.25;59.57;101238.63;7256252;19;153691;-57
2023/01/06 04:30:43;;;;;;;;;;;;;;;16.24;59.43;101238.91;7260240;19;153587;-57
2023/01/06 04:33:11;;;;;;;;;;;;;;;16.23;59.29;101238.06;7255105;19;153674;-57
2023/01/06 04:35:38;;;;;;;;;;;;;;;16.24;59.39;101241.69;7251724;19;153356;-57
2023/01/06 04:38:06;;;;;;;;;;;;;;;16.23;59.28;101238.06;7253389;19;153417;-57
2023/01/06 04:40:33;;;;;;;;;;;;;;;16.23;59.53;101240.84;7250932;19;154549;-57
2023/01/06 04:45:30;;;;;;;;;;;;;;;16.22;59.38;101249.47;7256008;19;153611;-57
2023/01/06 04:47:57;;;;;;;;;;;;;;;16.22;59.25;101255.03;7255430;19;153727;-58
2023/01/06 04:50:24;;;;;;;;;;;;;;;16.21;59.39;101251.44;7253673;19;153909;-57
2023/01/06 04:52:51;;;;;;;;;;;;;;;16.21;59.19;101250.59;7261581;19;154577;-57
2023/01/06 04:55:18;;;;;;;;;;;;;;;16.21;59.39;101256.19;7256230;19;153634;-57
2023/01/06 04:57:45;;;;;;;;;;;;;;;16.21;59.38;101256.19;7256333;19;153276;-57
2023/01/06 05:00:13;;;;;;;;;;;;;;;16.20;59.17;101255.34;7253021;19;154037;-57
2023/01/06 05:02:41;;;;;;;;;;;;;;;16.20;59.10;101257.28;7253936;19;153126;-57
2023/01/06 05:05:08;;;;;;;;;;;;;;;16.18;59.38;101257.53;7253180;19;153419;-57
2023/01/06 05:07:35;;;;;;;;;;;;;;;16.19;59.15;101258.38;7248056;19;153200;-57
2023/01/06 05:10:03;;;;;;;;;;;;;;;16.17;58.93;101260.63;7254402;19;154433;-57
2023/01/06 05:12:30;;;;;;;;;;;;;;;16.17;59.24;101257.84;7253523;19;154571;-57
2023/01/06 05:14:57;;;;;;;;;;;;;;;16.17;59.08;101258.66;7260389;19;153944;-57
2023/01/06 05:17:25;;;;;;;;;;;;;;;16.17;59.06;101263.41;7251946;19;154299;-58
2023/01/06 05:19:52;;;;;;;;;;;;;;;16.16;58.61;101268.16;7250938;19;154033;-57
2023/01/06 05:22:19;;;;;;;;;;;;;;;16.16;58.58;101265.34;7249375;19;154024;-57
2023/01/06 05:24:46;;;;;;;;;;;;;;;16.14;58.75;101267.56;7252594;19;154644;-57
2023/01/06 05:27:13;;;;;;;;;;;;;;;16.14;58.51;101277.88;7253646;19;154522;-57
2023/01/06 05:29:40;;;;;;;;;;;;;;;16.13;58.69;101279.81;7254085;19;153457;-57
2023/01/06 05:32:07;;;;;;;;;;;;;;;16.14;58.59;101283.44;7253820;19;153885;-57
2023/01/06 05:34:34;;;;;;;;;;;;;;;16.13;58.57;101290.97;7260596;19;155808;-57
2023/01/06 05:37:02;;;;;;;;;;;;;;;16.12;58.47;101286.53;7251058;19;153668;-57
2023/01/06 05:39:29;;;;;;;;;;;;;;;16.12;58.46;101286.53;7253140;19;154220;-57
2023/01/06 05:41:56;;;;;;;;;;;;;;;16.11;58.62;101286.78;7254208;19;152749;-57
2023/01/06 05:44:23;;;;;;;;;;;;;;;16.11;58.63;101287.63;7251567;19;154177;-57
2023/01/06 05:46:50;;;;;;;;;;;;;;;16.11;58.52;101293.19;7251969;19;156120;-57
2023/01/06 05:49:17;;;;;;;;;;;;;;;16.10;58.63;101288.72;7253340;19;152389;-57
2023/01/06 05:51:44;;;;;;;;;;;;;;;16.11;58.74;101292.34;7248572;19;155313;-57
2023/01/06 05:54:11;;;;;;;;;;;;;;;16.09;58.24;101281.47;7251765;19;153926;-57
2023/01/06 05:56:38;;;;;;;;;;;;;;;16.08;58.59;101290.94;7259547;19;153452;-57
2023/01/06 05:59:05;;;;;;;;;;;;;;;16.07;58.35;101294.84;7252252;19;156337;-57
2023/01/06 06:01:32;;;;;;;;;;;;;;;16.08;58.56;101290.94;7250295;19;152324;-57
2023/01/06 06:03:59;;;;;;;;;;;;;;;16.07;58.56;101288.44;7253067;19;153700;-57
2023/01/06 06:06:28;;;;;;;;;;;;;;;16.06;58.43;101286.75;7249381;19;154051;-57
2023/01/06 06:08:56;;;;;;;;;;;;;;;16.07;58.33;101288.44;7252953;19;153504;-57
2023/01/06 06:11:23;;;;;;;;;;;;;;;16.06;58.31;101290.38;7252137;19;153908;-57
2023/01/06 06:13:51;;;;;;;;;;;;;;;16.06;58.20;101292.31;7248275;19;152903;-57
2023/01/06 06:16:19;;;;;;;;;;;;;;;16.06;58.26;101300.69;7252473;19;153218;-57
2023/01/06 06:18:48;;;;;;;;;;;;;;;16.06;58.41;101303.47;7255619;19;152409;-57
2023/01/06 06:21:16;;;;;;;;;;;;;;;16.06;58.23;101300.69;7248708;19;153661;-57
2023/01/06 06:23:43;;;;;;;;;;;;;;;16.05;58.46;101294.28;7252549;19;152610;-57
2023/01/06 06:26:11;;;;;;;;;;;;;;;16.04;58.46;101298.16;7250885;19;152830;-58
2023/01/06 06:28:38;;;;;;;;;;;;;;;16.04;58.35;101306.53;7250115;19;153279;-57
2023/01/06 06:31:07;;;;;;;;;;;;;;;16.05;58.12;101307.38;7252188;19;153505;-57
2023/01/06 06:33:34;;;;;;;;;;;;;;;16.03;58.30;101305.69;7252066;19;153559;-57
2023/01/06 06:36:01;;;;;;;;;;;;;;;16.03;58.12;101316.00;7249705;19;153998;-57
2023/01/06 06:38:28;;;;;;;;;;;;;;;16.02;58.39;101314.31;7250281;19;153087;-57
2023/01/06 06:40:55;;;;;;;;;;;;;;;16.02;57.99;101322.69;7256735;19;154719;-58
2023/01/06 06:43:23;;;;;;;;;;;;;;;16.01;58.25;101321.84;7252226;19;153710;-57
2023/01/06 06:45:50;;;;;;;;;;;;;;;16.01;57.93;101318.22;7248679;19;153978;-57
2023/01/06 06:48:17;;;;;;;;;;;;;;;16.02;58.05;101322.69;7252606;19;154196;-57
2023/01/06 06:50:44;;;;;;;;;;;;;;;16.00;58.15;101322.94;7250574;19;154241;-57
2023/01/06 06:53:11;;;;;;;;;;;;;;;16.01;58.30;101323.78;7251759;19;154127;-57
2023/01/06 06:55:38;;;;;;;;;;;;;;;16.01;57.89;101318.22;7251324;19;153508;-57
2023/01/06 06:58:05;;;;;;;;;;;;;;;16.00;58.29;101324.88;7252428;19;152581;-57
2023/01/06 07:00:32;;;;;;;;;;;;;;;15.98;58.06;101322.41;7250436;19;154421;-57
2023/01/06 07:02:59;;;;;;;;;;;;;;;15.99;58.32;101326.00;7259251;19;154579;-57
2023/01/06 07:05:26;;;;;;;;;;;;;;;15.98;58.29;101329.91;7244159;19;156008;-57
2023/01/06 07:07:53;;;;;;;;;;;;;;;15.98;58.26;101327.97;7247434;19;152259;-57
2023/01/06 07:10:20;;;;;;;;;;;;;;;15.97;58.04;101329.06;7250946;19;153914;-57
2023/01/06 07:12:47;;;;;;;;;;;;;;;15.96;57.97;101332.97;7247776;19;155187;-57
2023/01/06 07:15:14;;;;;;;;;;;;;;;15.97;58.08;101334.63;7250656;19;154246;-57
2023/01/06 07:17:41;;;;;;;;;;;;;;;15.96;58.03;101332.97;7249377;19;154548;-57
2023/01/06 07:20:09;;;;;;;;;;;;;;;15.97;57.70;101339.38;7248763;19;153917;-57
2023/01/06 07:22:37;;;;;;;;;;;;;;;15.96;57.67;101329.31;7248867;19;154323;-57
2023/01/06 07:25:05;;;;;;;;;;;;;;;15.96;57.74;101337.69;7255331;19;153472;-57
2023/01/06 07:27:32;;;;;;;;;;;;;;;15.95;57.73;101341.56;7249285;19;153859;-57
2023/01/06 07:30:00;;;;;;;;;;;;;;;15.94;57.87;101339.91;7247457;19;154113;-57
2023/01/06 07:32:27;;;;;;;;;;;;;;;15.94;57.63;101343.50;7245178;19;153852;-57
2023/01/06 07:34:54;;;;;;;;;;;;;;;15.95;57.79;101350.78;7250382;19;153296;-57
2023/01/06 07:37:21;;;;;;;;;;;;;;;15.93;57.63;101355.78;7246411;19;154523;-57
2023/01/06 07:39:48;;;;;;;;;;;;;;;15.92;57.63;101358.84;7248957;19;155262;-57
2023/01/06 07:42:15;;;;;;;;;;;;;;;15.94;57.54;101359.41;7248864;19;153893;-57
2023/01/06 07:44:42;;;;;;;;;;;;;;;15.92;57.99;101361.63;7257604;19;154899;-57
2023/01/06 07:47:09;;;;;;;;;;;;;;;15.91;57.75;101346.00;7249971;19;154149;-57
2023/01/06 07:49:36;;;;;;;;;;;;;;;15.91;57.54;101360.78;7251437;19;154201;-57
2023/01/06 07:52:03;;;;;;;;;;;;;;;15.91;57.48;101362.72;7245314;19;154795;-57
2023/01/06 07:54:31;;;;;;;;;;;;;;;15.91;57.77;101365.50;7249407;19;152537;-57
2023/01/06 07:56:58;;;;;;;;;;;;;;;15.91;57.91;101371.09;7248048;19;154595;-57
2023/01/06 07:59:25;;;;;;;;;;;;;;;15.90;57.50;101369.41;7248034;19;154204;-57
2023/01/06 08:01:52;;;;;;;;;;;;;;;15.88;57.59;101375.25;7248966;19;152011;-57
2023/01/06 08:04:19;;;;;;;;;;;;;;;15.88;57.46;101369.69;7247491;19;156155;-58
2023/01/06 08:06:46;;;;;;;;;;;;;;;15.89;57.41;101364.94;7252368;19;155271;-57
2023/01/06 08:09:13;;;;;;;;;;;;;;;15.88;57.47;101372.47;7248319;19;153873;-57
2023/01/06 08:11:41;;;;;;;;;;;;;;;15.88;57.75;101366.91;7248468;19;154134;-57
2023/01/06 08:14:09;;;;;;;;;;;;;;;15.87;57.52;101367.16;7250057;19;152506;-57
2023/01/06 08:16:38;;;;;;;;;;;;;;;15.87;57.33;101364.38;7246913;19;155032;-57
2023/01/06 08:19:05;;;;;;;;;;;;;;;15.88;57.65;101368.84;7249131;19;153336;-57
2023/01/06 08:21:32;;;;;;;;;;;;;;;15.87;57.64;101372.72;7242405;19;154558;-57
2023/01/06 08:24:00;;;;;;;;;;;;;;;15.85;57.47;101367.41;7248716;19;152297;-57
2023/01/06 08:26:27;;;;;;;;;;;;;;;15.85;57.63;101367.41;7248019;19;153973;-57
2023/01/06 08:28:54;;;;;;;;;;;;;;;15.85;57.21;101380.53;7256746;19;154533;-57
2023/01/06 08:31:21;;;;;;;;;;;;;;;15.84;57.52;101379.69;7248884;19;154203;-57
2023/01/06 08:33:50;;;;;;;;;;;;;;;15.83;57.42;101386.34;7249725;19;153636;-57
2023/01/06 08:36:18;;;;;;;;;;;;;;;15.83;57.48;101386.34;7249108;19;155350;-57
2023/01/06 08:38:46;;;;;;;;;;;;;;;15.84;57.49;101385.25;7248121;19;153405;-57
2023/01/06 08:41:13;;;;;;;;;;;;;;;15.83;57.33;101385.50;7247914;19;153589;-57
2023/01/06 08:43:42;;;;;;;;;;;;;;;15.84;57.63;101396.41;7253175;19;154911;-57
2023/01/06 08:46:12;;;;;;;;;;;;;;;15.83;57.55;101394.72;7253710;19;153333;-57
2023/01/06 08:48:40;;;;;;;;;;;;;;;15.82;57.48;101390.25;7257968;19;155382;-57
2023/01/06 08:51:10;;;;;;;;;;;;;;;15.82;57.33;101390.25;7258997;19;154325;-57
2023/01/06 08:53:37;;;;;;;;;;;;;;;15.82;57.41;101394.97;7257516;19;154521;-57
2023/01/06 08:56:04;;;;;;;;;;;;;;;15.81;57.41;101401.63;7257272;19;153628;-57
2023/01/06 08:58:31;;;;;;;;;;;;;;;15.81;57.26;101401.63;7253559;19;154702;-57
2023/01/06 09:00:58;;;;;;;;;;;;;;;15.81;57.60;101399.69;7253456;19;153306;-57
2023/01/06 09:03:26;;;;;;;;;;;;;;;15.82;57.44;101411.69;7254488;19;153136;-57
2023/01/06 09:05:54;;;;;;;;;;;;;;;15.80;57.53;101398.03;7250503;19;152656;-57
2023/01/06 09:08:21;;;;;;;;;;;;;;;15.80;57.46;101402.78;7255347;19;153920;-57
2023/01/06 09:10:49;;;;;;;;;;;;;;;15.79;57.34;101403.88;7255531;19;153902;-57
2023/01/06 09:13:16;;;;;;;;;;;;;;;15.79;57.43;101401.94;7258533;19;154744;-57
2023/01/06 09:15:44;;;;;;;;;;;;;;;15.80;57.27;101399.97;7258112;19;154433;-57
2023/01/06 09:18:11;;;;;;;;;;;;;;;15.79;57.34;101409.44;7256917;19;153634;-57
2023/01/06 09:20:38;;;;;;;;;;;;;;;15.78;57.48;101405.81;7253259;19;153685;-57
2023/01/06 09:23:05;;;;;;;;;;;;;;;15.78;57.25;101399.41;7254276;19;154003;-57
2023/01/06 09:25:37;;;;;;;;;;;;;;;15.80;57.07;101411.13;7252048;19;153986;-57
2023/01/06 09:28:04;;;;;;;;;;;;;;;15.78;57.25;101410.53;7256191;19;152691;-57
2023/01/06 09:30:31;;;;;;;;;;;;;;;15.77;57.27;101406.91;7254928;19;154349;-57
2023/01/06 09:32:58;;;;;;;;;;;;;;;15.78;57.09;101411.38;7256561;19;154211;-57
2023/01/06 09:35:26;;;;;;;;;;;;;;;15.77;57.14;101414.41;7260116;19;154134;-57
2023/01/06 09:37:53;;;;;;;;;;;;;;;15.77;57.44;101411.63;7252638;19;152910;-57
2023/01/06 09:40:24;;;;;;;;;;;;;;;15.78;57.28;101413.31;7254434;19;153345;-57
2023/01/06 09:42:54;;;;;;;;;;;;;;;15.76;57.05;101409.97;7253626;19;153236;-57
2023/01/06 09:45:24;;;;;;;;;;;;;;;15.77;57.19;101414.41;7254007;19;153652;-57
2023/01/06 09:47:54;;;;;;;;;;;;;;;15.77;57.25;101423.63;7257133;19;152733;-57
2023/01/06 09:50:24;;;;;;;;;;;;;;;15.75;57.16;101430.56;7252595;19;155458;-57
2023/01/06 09:52:54;;;;;;;;;;;;;;;15.76;57.05;101421.94;7252440;19;154852;-57
2023/01/06 09:55:29;;;;;;;;;;;;;;;15.76;57.37;101416.38;7259544;19;152629;-57
2023/01/06 09:57:59;;;;;;;;;;;;;;;15.76;56.83;101415.56;7255514;19;153992;-57
2023/01/06 10:00:30;;;;;;;;;;;;;;;15.76;57.00;101415.56;7252976;19;152805;-57
2023/01/06 10:02:57;;;;;;;;;;;;;;;15.75;56.96;101409.13;7255080;19;154190;-57
2023/01/06 10:05:29;;;;;;;;;;;;;;;15.75;56.96;101419.44;7252420;19;155217;-57
2023/01/06 10:08:02;;;;;;;;;;;;;;;15.75;56.91;101425.84;7252989;19;154390;-57
2023/01/06 10:10:30;;;;;;;;;;;;;;;15.75;56.99;101416.66;7255410;19;154929;-57
2023/01/06 10:12:59;;;;;;;;;;;;;;;15.74;56.90;101424.16;7253652;19;154588;-57
2023/01/06 10:15:30;;;;;;;;;;;;;;;15.74;56.73;101426.94;7258492;19;153875;-57
2023/01/06 10:18:00;;;;;;;;;;;;;;;15.75;56.96;101419.44;7261504;19;154402;-57
2023/01/06 10:20:34;;;;;;;;;;;;;;;15.75;56.90;101413.88;7254249;19;152761;-57
2023/01/06 10:23:05;;;;;;;;;;;;;;;15.75;57.08;101416.66;7253975;19;154712;-57
2023/01/06 10:25:33;;;;;;;;;;;;;;;15.75;57.19;101409.13;7251929;19;154956;-57
2023/01/06 10:28:02;;;;;;;;;;;;;;;15.75;57.19;101402.72;7252212;19;152315;-57
2023/01/06 10:30:29;;;;;;;;;;;;;;;15.74;57.30;101407.44;7250031;19;153431;-57
2023/01/06 10:33:03;;;;;;;;;;;;;;;15.76;57.12;101409.97;7253551;19;155586;-57
2023/01/06 10:35:31;;;;;;;;;;;;;;;15.76;57.01;101407.19;7248934;19;152962;-57
2023/01/06 10:38:02;;;;;;;;;;;;;;;15.75;57.13;101411.94;7251892;19;155712;-57
2023/01/06 10:40:29;;;;;;;;;;;;;;;15.74;57.31;101407.44;7258092;19;154510;-57
2023/01/06 10:43:01;;;;;;;;;;;;;;;15.75;57.09;101406.34;7256217;19;154191;-57
2023/01/06 10:45:31;;;;;;;;;;;;;;;15.76;57.06;101398.84;7250391;19;154574;-57
2023/01/06 10:47:59;;;;;;;;;;;;;;;15.77;56.89;101400.50;7253457;19;153481;-57
2023/01/06 10:50:26;;;;;;;;;;;;;;;15.76;56.91;101401.63;7249409;19;153941;-57
2023/01/06 10:52:53;;;;;;;;;;;;;;;15.77;56.86;101406.06;7251471;19;154392;-57
2023/01/06 10:55:23;;;;;;;;;;;;;;;15.78;57.12;101404.97;7251863;19;152483;-58
2023/01/06 10:57:52;;;;;;;;;;;;;;;15.77;57.18;101397.72;7251588;19;152851;-57
2023/01/06 11:00:21;;;;;;;;;;;;;;;15.76;57.19;101394.06;7250650;19;154761;-57
2023/01/06 11:02:51;;;;;;;;;;;;;;;15.78;57.09;101396.59;7257882;19;154008;-57
2023/01/06 11:05:25;;;;;;;;;;;;;;;15.78;56.92;101396.59;7247943;19;156495;-57
2023/01/06 11:07:55;;;;;;;;;;;;;;;15.78;57.20;101382.69;7251589;19;154576;-57
2023/01/06 11:10:26;;;;;;;;;;;;;;;15.77;57.02;101361.50;7249155;19;153454;-57
2023/01/06 11:12:54;;;;;;;;;;;;;;;15.77;57.01;101359.56;7246433;19;156616;-57
2023/01/06 11:15:24;;;;;;;;;;;;;;;15.77;56.98;101362.34;7253227;19;154108;-57
2023/01/06 11:17:51;;;;;;;;;;;;;;;15.78;56.96;101352.03;7253962;19;154163;-57
2023/01/06 11:20:19;;;;;;;;;;;;;;;15.78;57.00;101360.41;7249258;19;156602;-57
2023/01/06 11:22:47;;;;;;;;;;;;;;;15.77;56.78;101342.84;7253055;19;153199;-57
2023/01/06 11:25:17;;;;;;;;;;;;;;;15.79;56.95;101348.16;7256074;19;154936;-57
2023/01/06 11:27:44;;;;;;;;;;;;;;;15.78;57.05;101349.25;7253069;19;154099;-57
2023/01/06 11:30:19;;;;;;;;;;;;;;;15.77;57.11;101347.56;7249502;19;153706;-57
2023/01/06 11:32:47;;;;;;;;;;;;;;;15.77;56.82;101342.84;7252051;19;154438;-57
2023/01/06 11:35:18;;;;;;;;;;;;;;;15.78;57.05;101340.91;7251222;19;152662;-57
2023/01/06 11:37:45;;;;;;;;;;;;;;;15.77;56.73;101342.84;7247634;19;154270;-57
2023/01/06 11:40:17;;;;;;;;;;;;;;;15.77;56.77;101331.69;7245657;19;153998;-57
2023/01/06 11:42:47;;;;;;;;;;;;;;;15.78;56.83;101338.94;7250585;19;153093;-57
2023/01/06 11:45:19;;;;;;;;;;;;;;;15.78;56.88;101338.09;7253641;19;155028;-57
2023/01/06 11:47:47;;;;;;;;;;;;;;;15.78;57.14;101329.75;7258666;19;153595;-57
2023/01/06 11:50:18;;;;;;;;;;;;;;;15.78;56.93;101319.44;7249900;19;154901;-57
2023/01/06 11:52:57;;;;;;;;;;;;;;;15.78;57.14;101322.25;7250308;19;154190;-57
2023/01/06 11:55:26;;;;;;;;;;;;;;;15.77;56.88;101316.91;7248192;19;153455;-57
2023/01/06 11:57:56;;;;;;;;;;;;;;;15.79;57.04;101323.09;7251603;19;153615;-57
2023/01/06 12:00:26;;;;;;;;;;;;;;;15.79;57.13;101329.50;7249020;19;153462;-57
2023/01/06 12:02:56;;;;;;;;;;;;;;;15.78;57.16;101318.59;7250917;19;152796;-57
2023/01/06 12:05:31;;;;;;;;;;;;;;;15.79;56.88;101314.72;7246697;19;155537;-57
2023/01/06 12:07:59;;;;;;;;;;;;;;;15.78;57.20;101311.09;7255368;19;154528;-57
2023/01/06 12:10:30;;;;;;;;;;;;;;;15.79;56.67;101318.34;7248194;19;154314;-58
2023/01/06 12:12:58;;;;;;;;;;;;;;;15.79;57.09;101314.72;7245003;19;155049;-57
2023/01/06 12:15:27;;;;;;;;;;;;;;;15.78;57.08;101305.53;7249566;19;154116;-57
2023/01/06 12:17:56;;;;;;;;;;;;;;;15.79;56.78;101296.06;7254429;19;153865;-57
2023/01/06 12:20:31;;;;;;;;;;;;;;;15.80;56.59;101289.41;7253741;19;154195;-57
2023/01/06 12:23:00;;;;;;;;;;;;;;;15.79;56.95;101286.88;7255528;19;153321;-57
2023/01/06 12:25:32;;;;;;;;;;;;;;;15.79;56.71;101270.16;7255167;19;154162;-57
2023/01/06 12:28:03;;;;;;;;;;;;;;;15.79;56.83;101264.59;7253497;19;153856;-57
2023/01/06 12:30:31;;;;;;;;;;;;;;;15.79;56.72;101259.00;7261511;19;152343;-57
2023/01/06 12:33:02;;;;;;;;;;;;;;;15.79;56.70;101262.63;7257245;19;154816;-57
2023/01/06 12:35:32;;;;;;;;;;;;;;;15.79;56.51;101259.00;7252468;19;153499;-57
2023/01/06 12:38:03;;;;;;;;;;;;;;;15.80;57.01;101266.28;7255273;19;153918;-57
2023/01/06 12:40:34;;;;;;;;;;;;;;;15.79;56.88;101278.50;7251825;19;153348;-57